Time;durP1;ratioP1;P1;durP2;ratioP2;P2;SDS_P1;SDS_P2;PMS_P1;PMS_P2;Temp;Humidity;BMP_temperature;BMP_pressure;BME280_temperature;BME280_humidity;BME280_pressure;Samples;Min_cycle;Max_cycle;Signal;HPM_P1;HPM_P2
2023/04/05 00:01:36;;;;;;;;;;;;;;;27.02;38.65;94437.66;5012046;28;9365;-56
2023/04/05 00:04:04;;;;;;;;;;;;;;;27.00;38.75;94426.38;5012880;28;7113;-56
2023/04/05 00:06:33;;;;;;;;;;;;;;;26.99;38.87;94427.63;5027300;28;7428;-55
2023/04/05 00:09:03;;;;;;;;;;;;;;;27.00;38.81;94429.16;5011541;28;9098;-56
2023/04/05 00:11:31;;;;;;;;;;;;;;;26.97;38.74;94421.88;5018404;28;8623;-56
2023/04/05 00:14:09;;;;;;;;;;;;;;;27.01;38.66;94419.59;5020260;28;7356;-55
2023/04/05 00:16:40;;;;;;;;;;;;;;;26.99;38.66;94424.88;5041000;28;7388;-56
2023/04/05 00:19:22;;;;;;;;;;;;;;;26.96;38.94;94420.41;5019923;28;7263;-55
2023/04/05 00:22:24;;;;;;;;;;;;;;;26.97;38.73;94418.41;5036285;28;7060;-56
2023/04/05 00:25:08;;;;;;;;;;;;;;;26.97;38.75;94418.41;5028434;28;9109;-56
2023/04/05 00:27:47;;;;;;;;;;;;;;;26.95;38.98;94413.38;5017496;28;7295;-56
2023/04/05 00:30:19;;;;;;;;;;;;;;;26.97;38.82;94418.41;5031467;28;7035;-55
2023/04/05 00:32:55;;;;;;;;;;;;;;;26.95;38.29;94407.88;5034587;28;8128;-55
2023/04/05 00:35:29;;;;;;;;;;;;;;;26.95;38.90;94398.84;5032279;28;7455;-56
2023/04/05 00:38:08;;;;;;;;;;;;;;;26.93;38.81;94402.13;5023297;28;9436;-56
2023/04/05 00:40:41;;;;;;;;;;;;;;;26.93;38.76;94399.34;5022714;28;7118;-56
2023/04/05 00:43:21;;;;;;;;;;;;;;;26.92;38.91;94395.84;5035218;28;6984;-56
2023/04/05 00:46:03;;;;;;;;;;;;;;;26.94;38.77;94397.34;5023510;28;7085;-55
2023/04/05 00:48:37;;;;;;;;;;;;;;;26.94;39.10;94397.34;5031528;28;8984;-56
2023/04/05 00:51:10;;;;;;;;;;;;;;;26.93;38.68;94393.84;5031267;28;7033;-56
2023/04/05 00:53:47;;;;;;;;;;;;;;;26.93;38.63;94388.31;5017698;28;9377;-56
2023/04/05 00:56:23;;;;;;;;;;;;;;;26.90;38.48;94390.09;5022544;28;7485;-56
2023/04/05 00:58:52;;;;;;;;;;;;;;;26.90;39.06;94389.38;5025221;28;9138;-56
2023/04/05 01:01:22;;;;;;;;;;;;;;;26.90;38.59;94386.63;5016348;28;7309;-55
2023/04/05 01:04:04;;;;;;;;;;;;;;;26.89;38.64;94383.09;5022459;28;7038;-56
2023/04/05 01:07:21;;;;;;;;;;;;;;;26.89;38.77;94380.34;5021404;28;7273;-56
2023/04/05 01:10:04;;;;;;;;;;;;;;;26.89;38.49;94376.81;5015378;28;7250;-55
2023/04/05 01:12:40;;;;;;;;;;;;;;;26.87;38.60;94374.59;5013053;28;7851;-55
2023/04/05 01:15:20;;;;;;;;;;;;;;;26.89;38.64;94376.81;5025897;28;7225;-56
2023/04/05 01:18:00;;;;;;;;;;;;;;;26.87;38.97;94369.06;5037976;28;9533;-55
2023/04/05 01:20:36;;;;;;;;;;;;;;;26.82;38.56;94361.59;5035031;28;7508;-55
2023/04/05 01:23:29;;;;;;;;;;;;;;;26.80;38.84;94357.84;5043266;28;8671;-55
2023/04/05 01:26:33;;;;;;;;;;;;;;;26.77;39.03;94358.91;5048652;28;9007;-56
2023/04/05 01:29:24;;;;;;;;;;;;;;;26.77;39.01;94351.38;5030150;28;7024;-56
2023/04/05 01:32:39;;;;;;;;;;;;;;;26.74;39.46;94357.19;5051416;28;9013;-56
2023/04/05 01:35:54;;;;;;;;;;;;;;;26.69;39.23;94357.97;4989680;28;7158;-55
2023/04/05 01:38:25;;;;;;;;;;;;;;;26.68;39.14;94350.97;4932439;29;9162;-56
2023/04/05 01:41:21;;;;;;;;;;;;;;;26.69;39.14;94358.72;4921832;29;9214;-55
2023/04/05 01:44:00;;;;;;;;;;;;;;;26.66;39.50;94353.50;4932537;29;7026;-56
2023/04/05 01:46:45;;;;;;;;;;;;;;;26.63;39.17;94355.28;4911225;29;9063;-55
2023/04/05 01:49:16;;;;;;;;;;;;;;;26.63;39.09;94355.28;4935085;29;8379;-56
2023/04/05 01:52:03;;;;;;;;;;;;;;;26.59;39.23;94357.56;4938582;29;8666;-56
2023/04/05 01:54:31;;;;;;;;;;;;;;;26.60;39.21;94356.31;4933780;29;7034;-56
2023/04/05 01:56:59;;;;;;;;;;;;;;;26.64;39.71;94350.50;4932910;29;6989;-56
2023/04/05 01:59:35;;;;;;;;;;;;;;;26.61;39.84;94348.78;4933363;28;8759;-55
2023/04/05 02:02:41;;;;;;;;;;;;;;;26.58;39.52;94344.28;4942752;28;9307;-56
2023/04/05 02:05:09;;;;;;;;;;;;;;;26.54;39.93;94341.81;4885734;29;8251;-55
2023/04/05 02:07:37;;;;;;;;;;;;;;;26.55;39.94;94348.09;4877019;29;7055;-55
2023/04/05 02:10:13;;;;;;;;;;;;;;;26.53;39.50;94345.13;4913092;29;9321;-55
2023/04/05 02:12:39;;;;;;;;;;;;;;;26.51;39.72;94342.84;4888979;29;7067;-56
2023/04/05 02:15:05;;;;;;;;;;;;;;;26.49;39.28;94341.91;4924818;28;6856;-55
2023/04/05 02:17:44;;;;;;;;;;;;;;;26.46;40.02;94345.69;4935511;29;8690;-56
2023/04/05 02:20:13;;;;;;;;;;;;;;;26.46;39.22;94334.66;4927811;29;9082;-55
2023/04/05 02:22:44;;;;;;;;;;;;;;;26.44;40.02;94334.41;4939651;28;8923;-55
2023/04/05 02:25:12;;;;;;;;;;;;;;;26.44;39.85;94337.94;4935958;28;7043;-55
2023/04/05 02:27:47;;;;;;;;;;;;;;;26.43;40.04;94335.66;4938558;28;9404;-56
2023/04/05 02:30:31;;;;;;;;;;;;;;;26.42;39.31;94334.94;4944369;28;7483;-56
2023/04/05 02:32:57;;;;;;;;;;;;;;;26.44;39.96;94328.91;4952592;28;7474;-56
2023/04/05 02:35:24;;;;;;;;;;;;;;;26.40;40.01;94322.94;4951296;28;8656;-56
2023/04/05 02:37:51;;;;;;;;;;;;;;;26.41;40.14;94327.19;5022781;28;8250;-56
2023/04/05 02:40:17;;;;;;;;;;;;;;;26.39;39.79;94327.69;5051847;28;8704;-56
2023/04/05 02:42:45;;;;;;;;;;;;;;;26.36;39.71;94322.47;5044640;28;7251;-56
2023/04/05 02:45:11;;;;;;;;;;;;;;;26.35;39.67;94315.47;5037084;28;7326;-56
2023/04/05 02:47:39;;;;;;;;;;;;;;;26.35;39.59;94310.69;5054974;28;7132;-55
2023/04/05 02:50:07;;;;;;;;;;;;;;;26.30;40.33;94311.50;5047130;28;9055;-56
2023/04/05 02:52:36;;;;;;;;;;;;;;;26.34;40.09;94311.22;5041742;28;7236;-55
2023/04/05 02:55:18;;;;;;;;;;;;;;;26.32;39.76;94308.25;5057724;28;7620;-55
2023/04/05 02:57:59;;;;;;;;;;;;;;;26.32;39.75;94308.25;5030874;28;8855;-55
2023/04/05 03:00:44;;;;;;;;;;;;;;;26.35;40.78;94312.69;5064106;28;9390;-55
2023/04/05 03:03:11;;;;;;;;;;;;;;;26.34;40.08;94306.44;5077016;28;7471;-55
2023/04/05 03:05:47;;;;;;;;;;;;;;;26.31;40.29;94301.97;5037874;28;9123;-55
2023/04/05 03:08:22;;;;;;;;;;;;;;;26.33;40.34;94302.19;5056505;28;9368;-56
2023/04/05 03:10:53;;;;;;;;;;;;;;;26.32;39.66;94297.22;5056067;28;9025;-56
2023/04/05 03:13:22;;;;;;;;;;;;;;;26.31;40.59;94293.69;5046215;28;6870;-55
2023/04/05 03:16:12;;;;;;;;;;;;;;;26.32;39.72;94291.69;5074255;28;7278;-55
2023/04/05 03:18:39;;;;;;;;;;;;;;;26.30;40.41;94294.94;5038202;28;9105;-56
2023/04/05 03:21:11;;;;;;;;;;;;;;;26.30;40.50;94299.72;5049731;28;7517;-56
2023/04/05 03:23:37;;;;;;;;;;;;;;;26.28;40.45;94289.22;5051232;28;8987;-56
2023/04/05 03:26:05;;;;;;;;;;;;;;;26.27;40.16;94293.25;5070812;28;7174;-55
2023/04/05 03:28:31;;;;;;;;;;;;;;;26.29;40.03;94290.72;5044715;28;7234;-55
2023/04/05 03:30:59;;;;;;;;;;;;;;;26.29;40.10;94282.44;5069940;28;8676;-56
2023/04/05 03:33:27;;;;;;;;;;;;;;;26.31;39.91;94287.44;5047601;28;9033;-55
2023/04/05 03:35:55;;;;;;;;;;;;;;;26.24;39.51;94280.50;5054557;28;7502;-56
2023/04/05 03:38:27;;;;;;;;;;;;;;;26.28;40.17;94285.69;5050250;28;9321;-56
2023/04/05 03:41:20;;;;;;;;;;;;;;;26.28;39.96;94288.47;5058189;28;9061;-55
2023/04/05 03:43:50;;;;;;;;;;;;;;;26.29;40.39;94284.44;5030664;28;7487;-56
2023/04/05 03:46:45;;;;;;;;;;;;;;;26.28;39.96;94280.19;5030515;28;6869;-55
2023/04/05 03:49:11;;;;;;;;;;;;;;;26.29;39.57;94278.94;4940409;28;9057;-56
2023/04/05 03:51:37;;;;;;;;;;;;;;;26.29;39.65;94282.44;4953180;28;7556;-56
2023/04/05 03:54:03;;;;;;;;;;;;;;;26.28;39.62;94278.19;4951611;28;8782;-56
2023/04/05 03:56:29;;;;;;;;;;;;;;;26.27;40.32;94273.19;4953738;28;7500;-56
2023/04/05 03:58:56;;;;;;;;;;;;;;;26.25;39.63;94275.72;4965479;28;7006;-56
2023/04/05 04:01:23;;;;;;;;;;;;;;;26.24;40.35;94274.97;4945659;28;7489;-56
2023/04/05 04:03:51;;;;;;;;;;;;;;;26.24;40.09;94282.50;4970127;28;6995;-56
2023/04/05 04:06:20;;;;;;;;;;;;;;;26.27;39.82;94281.47;4969394;28;7259;-56
2023/04/05 04:08:46;;;;;;;;;;;;;;;26.23;39.76;94278.97;4959128;28;7199;-55
2023/04/05 04:11:12;;;;;;;;;;;;;;;26.24;39.82;94277.72;4967791;28;7980;-56
2023/04/05 04:13:38;;;;;;;;;;;;;;;26.24;40.21;94282.50;4953245;28;8995;-56
2023/04/05 04:16:04;;;;;;;;;;;;;;;26.27;39.57;94286.97;4945640;28;7062;-56
2023/04/05 04:18:30;;;;;;;;;;;;;;;26.27;39.96;94284.97;4966694;28;9047;-56
2023/04/05 04:20:59;;;;;;;;;;;;;;;26.28;40.19;94286.44;4970165;28;7268;-56
2023/04/05 04:23:26;;;;;;;;;;;;;;;26.28;39.74;94277.44;4970870;28;9143;-56
2023/04/05 04:25:53;;;;;;;;;;;;;;;26.28;39.74;94286.44;5003595;28;7160;-56
2023/04/05 04:28:20;;;;;;;;;;;;;;;26.26;40.30;94277.97;5049705;28;7248;-55
2023/04/05 04:30:46;;;;;;;;;;;;;;;26.27;39.82;94278.72;5049903;28;9105;-55
2023/04/05 04:33:16;;;;;;;;;;;;;;;26.24;40.20;94274.22;5050687;28;7080;-55
2023/04/05 04:35:45;;;;;;;;;;;;;;;26.26;39.92;94279.97;5076242;28;9152;-55
2023/04/05 04:38:19;;;;;;;;;;;;;;;26.26;39.86;94282.72;5055079;28;8856;-55
2023/04/05 04:40:45;;;;;;;;;;;;;;;26.24;40.16;94276.97;5071863;28;9178;-55
2023/04/05 04:43:16;;;;;;;;;;;;;;;26.24;40.11;94279.72;5052392;28;9495;-55
2023/04/05 04:45:45;;;;;;;;;;;;;;;26.23;39.64;94281.00;5073256;28;7403;-55
2023/04/05 04:48:20;;;;;;;;;;;;;;;26.21;39.74;94275.28;5081476;28;7642;-56
2023/04/05 04:50:50;;;;;;;;;;;;;;;26.22;40.24;94279.50;5048806;28;8332;-55
2023/04/05 04:53:28;;;;;;;;;;;;;;;26.19;39.98;94275.03;5043202;28;9316;-55
2023/04/05 04:56:05;;;;;;;;;;;;;;;26.24;40.23;94276.97;5069544;28;7236;-55
2023/04/05 04:58:46;;;;;;;;;;;;;;;26.23;39.68;94276.22;5058690;28;7582;-55
2023/04/05 05:01:12;;;;;;;;;;;;;;;26.32;39.37;94283.44;5073585;28;7244;-55
2023/04/05 05:03:46;;;;;;;;;;;;;;;26.36;39.81;94276.34;5049673;28;7448;-55
2023/04/05 05:06:28;;;;;;;;;;;;;;;26.38;40.02;94273.06;5050568;28;6995;-55
2023/04/05 05:08:56;;;;;;;;;;;;;;;26.38;39.63;94279.31;5055899;28;7061;-56
2023/04/05 05:11:29;;;;;;;;;;;;;;;26.41;39.82;94280.28;5053747;28;7299;-56
2023/04/05 05:14:06;;;;;;;;;;;;;;;26.42;39.72;94273.53;5052780;28;8724;-56
2023/04/05 05:16:41;;;;;;;;;;;;;;;26.45;39.64;94280.75;5067668;28;9466;-55
2023/04/05 05:19:19;;;;;;;;;;;;;;;26.41;39.48;94277.53;5063463;28;7043;-55
2023/04/05 05:21:52;;;;;;;;;;;;;;;26.39;40.19;94275.31;5084228;28;8983;-55
2023/04/05 05:24:19;;;;;;;;;;;;;;;26.38;39.49;94281.34;5063805;28;9035;-55
2023/04/05 05:26:47;;;;;;;;;;;;;;;26.38;39.81;94279.31;5062613;28;7003;-55
2023/04/05 05:29:19;;;;;;;;;;;;;;;26.35;39.53;94288.63;5050606;28;7254;-56
2023/04/05 05:31:58;;;;;;;;;;;;;;;26.38;39.84;94278.59;5064268;28;8982;-55
2023/04/05 05:34:31;;;;;;;;;;;;;;;26.40;39.93;94284.31;5041248;28;7443;-55
2023/04/05 05:37:05;;;;;;;;;;;;;;;26.47;39.23;94292.03;5056138;28;7065;-55
2023/04/05 05:39:40;;;;;;;;;;;;;;;26.50;39.68;94279.94;5058883;28;7023;-55
2023/04/05 05:42:15;;;;;;;;;;;;;;;26.55;38.63;94295.69;5065527;28;7244;-56
2023/04/05 05:44:51;;;;;;;;;;;;;;;26.52;38.75;94300.22;5051989;28;7251;-56
2023/04/05 05:47:28;;;;;;;;;;;;;;;26.51;38.19;94287.69;5046865;28;8245;-56
2023/04/05 05:50:08;;;;;;;;;;;;;;;26.56;38.67;94295.16;5050311;28;8713;-56
2023/04/05 05:52:41;;;;;;;;;;;;;;;26.59;38.72;94293.38;5041432;28;7130;-55
2023/04/05 05:55:08;;;;;;;;;;;;;;;26.56;38.32;94292.41;5077298;28;9058;-56
2023/04/05 05:57:37;;;;;;;;;;;;;;;26.59;37.58;94296.88;5066167;28;9026;-56
2023/04/05 06:00:21;;;;;;;;;;;;;;;26.58;38.37;94291.88;5053405;28;9524;-56
2023/04/05 06:02:50;;;;;;;;;;;;;;;26.57;38.34;94285.63;5064309;28;7032;-56
2023/04/05 06:05:17;;;;;;;;;;;;;;;26.59;38.88;94293.38;5052585;28;7323;-56
2023/04/05 06:07:44;;;;;;;;;;;;;;;26.58;37.94;94300.91;5057576;28;7252;-56
2023/04/05 06:10:20;;;;;;;;;;;;;;;26.58;38.53;94306.41;5054819;28;7120;-56
2023/04/05 06:12:49;;;;;;;;;;;;;;;26.59;37.60;94309.94;5054630;28;7277;-56
2023/04/05 06:15:49;;;;;;;;;;;;;;;26.59;37.96;94310.69;5058067;28;7389;-56
2023/04/05 06:18:28;;;;;;;;;;;;;;;26.58;37.65;94313.94;5005233;28;7292;-55
2023/04/05 06:21:21;;;;;;;;;;;;;;;26.62;37.57;94308.91;5009638;28;7034;-55
2023/04/05 06:24:25;;;;;;;;;;;;;;;26.60;37.55;94314.19;4992286;28;6864;-55
2023/04/05 06:27:03;;;;;;;;;;;;;;;26.58;37.88;94316.69;4974884;28;7530;-55
2023/04/05 06:29:43;;;;;;;;;;;;;;;26.56;38.15;94316.47;4974833;28;9431;-55
2023/04/05 06:32:18;;;;;;;;;;;;;;;26.52;37.71;94311.25;4959058;28;9084;-55
2023/04/05 06:34:55;;;;;;;;;;;;;;;26.56;38.22;94310.97;4958302;28;9464;-55
2023/04/05 06:37:53;;;;;;;;;;;;;;;26.59;38.09;94312.69;4963001;28;9914;-56
2023/04/05 06:40:47;;;;;;;;;;;;;;;26.58;38.22;94314.69;4919134;29;9397;-56
2023/04/05 06:43:24;;;;;;;;;;;;;;;26.58;37.60;94314.69;4863537;29;9228;-55
2023/04/05 06:46:11;;;;;;;;;;;;;;;26.57;38.45;94315.22;4862115;29;8844;-55
2023/04/05 06:48:38;;;;;;;;;;;;;;;26.55;38.51;94315.00;4863926;29;9334;-56
2023/04/05 06:51:04;;;;;;;;;;;;;;;26.50;38.39;94316.56;4878167;29;9006;-56
2023/04/05 06:53:39;;;;;;;;;;;;;;;26.50;38.29;94318.56;4863866;29;9344;-56
2023/04/05 06:56:06;;;;;;;;;;;;;;;26.47;37.73;94325.13;4883737;29;7096;-55
2023/04/05 06:59:16;;;;;;;;;;;;;;;26.44;37.55;94315.13;4897161;29;7674;-56
2023/04/05 07:01:51;;;;;;;;;;;;;;;26.47;38.37;94319.59;4891718;29;7266;-55
2023/04/05 07:04:19;;;;;;;;;;;;;;;26.45;38.56;94317.34;4891461;29;7484;-55
2023/04/05 07:06:51;;;;;;;;;;;;;;;26.47;38.02;94325.13;4893425;29;7432;-55
2023/04/05 07:09:17;;;;;;;;;;;;;;;26.51;38.00;94320.06;4915304;29;9503;-56
2023/04/05 07:12:29;;;;;;;;;;;;;;;26.54;38.37;94321.75;4907082;29;8673;-56
2023/04/05 07:15:05;;;;;;;;;;;;;;;26.53;38.46;94326.56;4866887;29;7279;-55
2023/04/05 07:18:08;;;;;;;;;;;;;;;26.48;38.52;94321.09;4919234;29;7327;-56
2023/04/05 07:20:48;;;;;;;;;;;;;;;26.44;38.38;94326.16;4951669;28;7032;-56
2023/04/05 07:23:27;;;;;;;;;;;;;;;26.45;38.36;94328.38;4955563;28;9367;-56
2023/04/05 07:25:54;;;;;;;;;;;;;;;26.43;37.97;94324.63;4941979;28;7350;-56
2023/04/05 07:28:34;;;;;;;;;;;;;;;26.40;38.23;94326.44;4949753;28;9174;-56
2023/04/05 07:31:02;;;;;;;;;;;;;;;26.39;38.25;94318.66;4957019;28;7164;-56
2023/04/05 07:33:28;;;;;;;;;;;;;;;26.39;38.52;94322.19;4963856;28;7274;-56
2023/04/05 07:36:02;;;;;;;;;;;;;;;26.40;38.16;94322.94;4952953;28;7196;-56
2023/04/05 07:38:36;;;;;;;;;;;;;;;26.38;38.71;94323.44;4970747;28;8478;-56
2023/04/05 07:41:10;;;;;;;;;;;;;;;26.40;38.69;94331.22;5015211;28;6962;-56
2023/04/05 07:44:06;;;;;;;;;;;;;;;26.39;39.07;94326.94;5016240;28;7361;-56
2023/04/05 07:46:50;;;;;;;;;;;;;;;26.36;39.05;94322.47;4931522;28;7340;-56
2023/04/05 07:49:50;;;;;;;;;;;;;;;26.40;38.83;94336.72;4954529;28;7408;-56
2023/04/05 07:52:24;;;;;;;;;;;;;;;26.38;38.33;94325.47;4934416;28;8932;-56
2023/04/05 07:54:54;;;;;;;;;;;;;;;26.40;38.68;94331.22;4953590;28;9004;-56
2023/04/05 07:57:31;;;;;;;;;;;;;;;26.41;38.45;94338.22;4944784;28;7134;-56
2023/04/05 07:59:59;;;;;;;;;;;;;;;26.40;38.93;94329.22;4937147;28;8993;-56
2023/04/05 08:02:35;;;;;;;;;;;;;;;26.39;38.39;94330.47;4924336;29;7303;-56
2023/04/05 08:05:16;;;;;;;;;;;;;;;26.37;38.54;94327.47;4960545;28;8965;-56
2023/04/05 08:07:58;;;;;;;;;;;;;;;26.41;38.14;94332.69;4933633;28;8908;-56
2023/04/05 08:10:38;;;;;;;;;;;;;;;26.40;39.06;94326.44;4921304;29;9159;-56
2023/04/05 08:13:05;;;;;;;;;;;;;;;26.41;38.77;94332.69;4934755;29;8717;-56
2023/04/05 08:15:57;;;;;;;;;;;;;;;26.44;38.60;94334.41;4925490;28;7367;-56
2023/04/05 08:18:34;;;;;;;;;;;;;;;26.43;38.33;94330.91;4925035;28;8163;-55
2023/04/05 08:21:32;;;;;;;;;;;;;;;26.44;39.11;94332.41;4952622;28;7560;-55
2023/04/05 08:24:11;;;;;;;;;;;;;;;26.43;39.10;94330.91;4953333;28;8966;-56
2023/04/05 08:27:06;;;;;;;;;;;;;;;26.43;38.57;94335.66;4965179;28;7123;-55
2023/04/05 08:30:00;;;;;;;;;;;;;;;26.46;38.44;94340.16;4989003;28;8951;-56
2023/04/05 08:32:45;;;;;;;;;;;;;;;26.54;38.48;94335.56;4972476;28;7040;-56
2023/04/05 08:35:43;;;;;;;;;;;;;;;26.59;38.27;94332.00;5005186;28;8848;-55
2023/04/05 08:38:12;;;;;;;;;;;;;;;26.63;37.70;94335.22;5003052;28;7269;-56
2023/04/05 08:40:51;;;;;;;;;;;;;;;26.63;36.94;94333.19;5010785;28;9875;-56
2023/04/05 08:43:39;;;;;;;;;;;;;;;26.63;37.38;94337.97;5007369;28;7266;-56
2023/04/05 08:46:17;;;;;;;;;;;;;;;26.62;37.72;94344.75;4991639;28;7349;-56
2023/04/05 08:48:58;;;;;;;;;;;;;;;26.61;37.74;94344.00;4991783;28;7117;-56
2023/04/05 08:51:25;;;;;;;;;;;;;;;26.62;37.57;94339.97;5006916;28;9792;-55
2023/04/05 08:54:00;;;;;;;;;;;;;;;26.65;37.77;94338.94;5012851;28;7334;-56
2023/04/05 08:56:32;;;;;;;;;;;;;;;26.65;37.66;94346.47;5007662;28;7032;-56
2023/04/05 08:59:08;;;;;;;;;;;;;;;26.64;37.33;94350.50;5014267;28;7022;-56
2023/04/05 09:01:44;;;;;;;;;;;;;;;26.68;37.81;94345.44;5046091;28;8985;-56
2023/04/05 09:04:19;;;;;;;;;;;;;;;26.69;37.85;94355.94;5056609;28;7525;-56
2023/04/05 09:06:49;;;;;;;;;;;;;;;26.66;37.47;94337.69;5057939;28;7217;-55
2023/04/05 09:09:20;;;;;;;;;;;;;;;26.69;37.27;94344.16;5046588;28;8961;-56
2023/04/05 09:11:47;;;;;;;;;;;;;;;26.67;37.89;94347.44;5049521;28;7257;-55
2023/04/05 09:14:15;;;;;;;;;;;;;;;26.66;37.62;94354.25;5051835;28;9204;-56
2023/04/05 09:16:42;;;;;;;;;;;;;;;26.65;37.79;94349.22;5054831;28;7234;-56
2023/04/05 09:19:10;;;;;;;;;;;;;;;26.65;37.79;94354.75;5047587;28;8938;-56
2023/04/05 09:22:03;;;;;;;;;;;;;;;26.67;38.07;94357.72;5040470;28;7238;-56
2023/04/05 09:24:49;;;;;;;;;;;;;;;26.65;37.87;94357.50;5057280;28;6989;-56
2023/04/05 09:27:30;;;;;;;;;;;;;;;26.63;38.05;94355.28;5050172;28;7034;-56
2023/04/05 09:30:22;;;;;;;;;;;;;;;26.65;38.14;94349.22;5034930;28;8036;-56
2023/04/05 09:32:51;;;;;;;;;;;;;;;26.67;38.18;94352.97;5066910;28;7272;-56
2023/04/05 09:35:38;;;;;;;;;;;;;;;26.69;38.55;94360.72;5051424;28;7239;-56
2023/04/05 09:38:08;;;;;;;;;;;;;;;26.68;38.78;94351.72;5049151;28;7072;-56
2023/04/05 09:40:52;;;;;;;;;;;;;;;26.70;38.34;94359.47;5069712;28;7127;-56
2023/04/05 09:43:45;;;;;;;;;;;;;;;26.71;38.05;94355.44;5048016;28;7572;-56
2023/04/05 09:46:37;;;;;;;;;;;;;;;26.74;38.45;94354.44;5060993;28;9138;-56
2023/04/05 09:49:13;;;;;;;;;;;;;;;26.74;38.52;94360.69;5048964;28;9063;-56
2023/04/05 09:52:01;;;;;;;;;;;;;;;26.75;37.93;94355.94;5045108;28;7135;-56
2023/04/05 09:54:28;;;;;;;;;;;;;;;26.73;38.30;94356.44;5077081;28;7696;-56
2023/04/05 09:57:09;;;;;;;;;;;;;;;26.76;38.04;94351.91;5039242;28;7065;-56
2023/04/05 09:59:35;;;;;;;;;;;;;;;26.77;38.23;94365.16;5044620;28;7263;-56
2023/04/05 10:02:05;;;;;;;;;;;;;;;26.76;38.66;94362.94;5054020;28;7105;-56
2023/04/05 10:04:42;;;;;;;;;;;;;;;26.77;38.19;94364.44;5048195;28;7051;-55
2023/04/05 10:07:20;;;;;;;;;;;;;;;26.78;38.73;94360.41;5053009;28;7143;-56
2023/04/05 10:10:31;;;;;;;;;;;;;;;26.78;38.17;94361.16;5063457;28;9442;-56
2023/04/05 10:13:30;;;;;;;;;;;;;;;26.80;38.75;94361.38;5076050;28;9424;-56
2023/04/05 10:16:15;;;;;;;;;;;;;;;26.83;38.00;94367.88;5028995;28;7235;-56
2023/04/05 10:18:50;;;;;;;;;;;;;;;26.84;38.35;94363.84;5025030;28;7302;-56
2023/04/05 10:21:41;;;;;;;;;;;;;;;26.83;38.25;94360.34;5030232;28;7055;-56
2023/04/05 10:25:05;;;;;;;;;;;;;;;26.86;37.86;94364.09;5041686;28;9578;-56
2023/04/05 10:27:46;;;;;;;;;;;;;;;26.89;38.23;94371.31;5039710;28;7635;-56
2023/04/05 10:30:36;;;;;;;;;;;;;;;26.92;37.82;94376.53;5031621;28;6871;-56
2023/04/05 10:33:27;;;;;;;;;;;;;;;26.92;37.61;94367.53;5027014;28;7366;-56
2023/04/05 10:36:19;;;;;;;;;;;;;;;26.95;37.71;94363.69;5030772;28;7282;-56
2023/04/05 10:39:03;;;;;;;;;;;;;;;26.94;37.78;94367.00;5024263;28;6856;-56
2023/04/05 10:41:46;;;;;;;;;;;;;;;26.93;38.29;94371.75;5026996;28;7322;-56
2023/04/05 10:44:14;;;;;;;;;;;;;;;26.95;37.54;94365.75;5035750;28;7019;-56
2023/04/05 10:46:57;;;;;;;;;;;;;;;26.96;38.25;94369.97;5023560;28;7266;-56
2023/04/05 10:50:17;;;;;;;;;;;;;;;26.95;38.07;94366.47;5034276;28;8523;-56
2023/04/05 10:52:58;;;;;;;;;;;;;;;26.97;38.19;94366.69;4975317;28;7495;-56
2023/04/05 10:55:37;;;;;;;;;;;;;;;26.98;38.14;94364.69;4978940;28;7491;-56
2023/04/05 10:58:41;;;;;;;;;;;;;;;26.99;38.17;94366.91;4989365;28;7358;-56
2023/04/05 11:01:10;;;;;;;;;;;;;;;27.00;38.42;94356.63;4984113;28;9444;-56
2023/04/05 11:03:47;;;;;;;;;;;;;;;27.00;38.36;94362.13;4986546;28;7467;-56
2023/04/05 11:06:28;;;;;;;;;;;;;;;27.02;38.04;94362.38;4975953;28;7257;-56
2023/04/05 11:09:09;;;;;;;;;;;;;;;27.02;38.17;94365.88;4987978;28;8629;-56
2023/04/05 11:11:51;;;;;;;;;;;;;;;27.04;38.59;94366.09;4974893;28;9469;-56
2023/04/05 11:14:43;;;;;;;;;;;;;;;27.05;38.30;94367.59;4976870;28;7890;-56
2023/04/05 11:17:30;;;;;;;;;;;;;;;27.08;38.48;94357.53;4985805;28;9045;-56
2023/04/05 11:20:05;;;;;;;;;;;;;;;27.08;38.75;94361.03;4997026;28;7904;-56
2023/04/05 11:22:53;;;;;;;;;;;;;;;27.12;38.33;94358.00;4977596;28;7040;-56
2023/04/05 11:25:28;;;;;;;;;;;;;;;27.12;38.35;94350.44;4976249;28;7457;-56
2023/04/05 11:28:08;;;;;;;;;;;;;;;27.13;37.75;94349.19;4999566;28;7276;-56
2023/04/05 11:30:57;;;;;;;;;;;;;;;27.14;38.34;94347.91;5074347;28;7677;-56
2023/04/05 11:33:41;;;;;;;;;;;;;;;27.16;38.36;94339.84;5063555;28;7242;-56
2023/04/05 11:36:40;;;;;;;;;;;;;;;27.16;38.40;94345.38;5081869;28;8912;-56
2023/04/05 11:39:44;;;;;;;;;;;;;;;27.18;38.04;94340.09;5025409;28;9233;-55
2023/04/05 11:42:28;;;;;;;;;;;;;;;27.17;38.20;94335.81;5016588;28;9049;-56
2023/04/05 11:45:31;;;;;;;;;;;;;;;27.18;38.18;94337.31;5018826;28;7299;-55
2023/04/05 11:48:22;;;;;;;;;;;;;;;27.17;38.61;94340.59;4918815;29;8475;-56
2023/04/05 11:51:33;;;;;;;;;;;;;;;27.21;38.18;94336.25;4917134;29;8279;-56
2023/04/05 11:54:06;;;;;;;;;;;;;;;27.23;38.47;94333.00;4932698;28;8788;-56
2023/04/05 11:56:33;;;;;;;;;;;;;;;27.23;37.78;94328.19;4935516;29;9006;-56
2023/04/05 11:59:29;;;;;;;;;;;;;;;27.25;38.18;94330.44;4918189;29;9349;-56
2023/04/05 12:02:04;;;;;;;;;;;;;;;27.24;38.35;94328.94;4900547;29;7126;-56
2023/04/05 12:04:31;;;;;;;;;;;;;;;27.20;37.99;94322.97;4902272;29;8716;-56
2023/04/05 12:07:17;;;;;;;;;;;;;;;27.21;39.36;94325.22;4882875;29;8712;-55
2023/04/05 12:10:08;;;;;;;;;;;;;;;27.22;38.78;94332.25;4897191;29;8742;-56
2023/04/05 12:12:41;;;;;;;;;;;;;;;27.24;38.69;94329.69;4884053;29;9082;-56
2023/04/05 12:15:18;;;;;;;;;;;;;;;27.22;38.93;94318.44;4901396;29;7099;-56
2023/04/05 12:18:00;;;;;;;;;;;;;;;27.24;38.42;94326.19;4900085;29;8989;-56
2023/04/05 12:20:29;;;;;;;;;;;;;;;27.19;38.86;94313.19;4880952;29;9516;-56
2023/04/05 12:23:13;;;;;;;;;;;;;;;27.16;38.75;94312.25;4903084;28;7045;-57
2023/04/05 12:25:41;;;;;;;;;;;;;;;27.19;38.63;94305.66;4973362;28;9217;-56
2023/04/05 12:28:16;;;;;;;;;;;;;;;27.22;38.62;94312.91;4964531;28;10044;-56
2023/04/05 12:30:59;;;;;;;;;;;;;;;27.21;39.14;94305.88;4943949;28;9087;-56
2023/04/05 12:33:42;;;;;;;;;;;;;;;27.25;38.81;94309.09;4980460;28;8296;-57
2023/04/05 12:36:17;;;;;;;;;;;;;;;27.25;39.36;94306.31;4951186;28;7337;-57
2023/04/05 12:39:20;;;;;;;;;;;;;;;27.27;39.20;94303.81;5031637;28;7060;-56
2023/04/05 12:42:02;;;;;;;;;;;;;;;27.29;39.56;94306.03;4992152;28;7553;-56
2023/04/05 12:44:42;;;;;;;;;;;;;;;27.28;39.37;94310.81;5001625;28;7024;-56
2023/04/05 12:47:09;;;;;;;;;;;;;;;27.27;39.42;94301.06;5000846;28;6877;-56
2023/04/05 12:50:08;;;;;;;;;;;;;;;27.32;39.77;94302.22;5000874;28;7311;-56
2023/04/05 12:52:56;;;;;;;;;;;;;;;27.32;39.46;94308.50;4983527;28;9094;-56
2023/04/05 12:55:24;;;;;;;;;;;;;;;27.28;39.52;94294.25;4983580;28;7000;-56
2023/04/05 12:58:03;;;;;;;;;;;;;;;27.33;39.53;94303.72;4979982;28;7390;-55
2023/04/05 13:00:31;;;;;;;;;;;;;;;27.32;39.56;94291.16;4999718;28;6946;-57
2023/04/05 13:03:16;;;;;;;;;;;;;;;27.34;39.75;94286.63;4985562;28;7038;-57
2023/04/05 13:05:59;;;;;;;;;;;;;;;27.37;39.70;94288.38;4979355;28;7082;-57
2023/04/05 13:08:35;;;;;;;;;;;;;;;27.40;39.41;94292.09;5005114;28;9267;-57
2023/04/05 13:11:10;;;;;;;;;;;;;;;27.42;39.26;94284.03;4989719;28;9437;-57
2023/04/05 13:13:47;;;;;;;;;;;;;;;27.43;39.70;94283.50;4991711;28;8299;-57
2023/04/05 13:16:19;;;;;;;;;;;;;;;27.46;39.67;94279.69;5030037;28;9040;-57
2023/04/05 13:19:13;;;;;;;;;;;;;;;27.50;39.75;94285.66;5062396;28;7063;-56
2023/04/05 13:21:40;;;;;;;;;;;;;;;27.51;39.76;94281.59;5048982;28;7039;-57
2023/04/05 13:24:09;;;;;;;;;;;;;;;27.53;39.93;94270.03;5069813;28;7453;-56
2023/04/05 13:26:37;;;;;;;;;;;;;;;27.52;39.98;94272.06;5052625;28;7065;-57
2023/04/05 13:29:04;;;;;;;;;;;;;;;27.52;40.27;94277.59;5052669;28;7135;-55
2023/04/05 13:31:57;;;;;;;;;;;;;;;27.55;39.83;94271.00;5039977;28;9234;-55
2023/04/05 13:34:39;;;;;;;;;;;;;;;27.59;40.07;94270.69;5024156;28;7210;-56
2023/04/05 13:37:15;;;;;;;;;;;;;;;27.61;39.74;94276.44;5019570;28;7044;-56
2023/04/05 13:39:55;;;;;;;;;;;;;;;27.67;39.73;94276.34;5030454;28;9495;-56
2023/04/05 13:42:30;;;;;;;;;;;;;;;27.67;38.71;94270.81;5028970;28;9073;-56
2023/04/05 13:44:57;;;;;;;;;;;;;;;27.67;38.72;94268.81;5021107;28;9042;-57
2023/04/05 13:47:27;;;;;;;;;;;;;;;27.72;38.94;94267.22;5016338;28;7195;-56
2023/04/05 13:49:55;;;;;;;;;;;;;;;27.71;38.99;94265.75;5018254;28;7499;-56
2023/04/05 13:52:28;;;;;;;;;;;;;;;27.72;39.31;94259.69;5024210;28;7280;-56
2023/04/05 13:55:11;;;;;;;;;;;;;;;27.75;39.20;94264.16;5043722;28;7668;-57